createdAt,value
2022-09-23T00:03:33.404Z,98.40
2022-09-23T00:06:06.727Z,99.70
2022-09-23T00:08:34.860Z,99.00
2022-09-23T00:11:14.974Z,99.30
2022-09-23T00:13:43.730Z,99.30
2022-09-23T00:16:13.808Z,99.40
2022-09-23T00:18:41.901Z,99.40
2022-09-23T00:21:11.630Z,99.80
2022-09-23T00:23:40.626Z,99.60
2022-09-23T00:26:09.756Z,99.70
2022-09-23T00:28:36.931Z,99.70
2022-09-23T00:31:09.126Z,99.90
2022-09-23T00:33:36.460Z,99.90
2022-09-23T00:36:05.653Z,99.90
2022-09-23T00:38:34.034Z,99.90
2022-09-23T00:41:01.314Z,99.90
2022-09-23T00:43:41.645Z,99.90
2022-09-23T00:46:13.593Z,99.90
2022-09-23T00:48:42.951Z,99.80
2022-09-23T00:51:16.801Z,99.90
2022-09-23T00:53:46.600Z,99.90
2022-09-23T00:56:15.408Z,99.90
2022-09-23T00:58:44.700Z,99.90
2022-09-23T01:01:17.266Z,99.90
2022-09-23T01:03:46.568Z,99.90
2022-09-23T01:06:16.101Z,99.90
2022-09-23T01:08:46.035Z,99.90
2022-09-23T01:11:37.393Z,99.90
2022-09-23T01:14:17.023Z,99.90
2022-09-23T01:17:03.408Z,99.90
2022-09-23T01:19:43.576Z,99.90
2022-09-23T01:22:16.957Z,99.90
2022-09-23T01:25:25.373Z,99.90
2022-09-23T01:28:10.849Z,99.90
2022-09-23T01:30:49.753Z,99.90
2022-09-23T01:33:19.685Z,99.90
2022-09-23T01:36:05.137Z,99.90
2022-09-23T01:38:40.698Z,99.90
2022-09-23T01:41:18.528Z,99.90
2022-09-23T01:44:10.701Z,99.90
2022-09-23T01:46:55.308Z,99.90
2022-09-23T01:49:35.467Z,99.90
2022-09-23T01:52:10.173Z,99.90
2022-09-23T01:54:47.898Z,99.90
2022-09-23T02:00:40.707Z,99.90
2022-09-23T02:03:27.431Z,99.90
2022-09-23T02:06:05.717Z,99.90
2022-09-23T02:08:44.043Z,99.90
2022-09-23T02:11:16.724Z,99.90
2022-09-23T02:13:52.840Z,99.90
2022-09-23T03:09:43.867Z,99.90
2022-09-23T03:12:23.130Z,99.90
2022-09-23T03:14:55.105Z,99.90
2022-09-23T11:23:16.707Z,99.90
2022-09-23T11:26:06.093Z,88.00
2022-09-23T11:46:49.167Z,85.30
2022-09-23T11:49:34.996Z,85.30
2022-09-23T11:52:33.117Z,85.10
2022-09-23T11:55:08.997Z,85.90
2022-09-23T11:58:23.026Z,86.30
2022-09-23T12:01:13.270Z,87.20
2022-09-23T12:04:18.082Z,87.10
2022-09-23T12:06:51.528Z,86.00
2022-09-23T12:09:57.398Z,87.60
2022-09-23T12:12:27.128Z,87.10
2022-09-23T12:15:01.558Z,86.20
2022-09-23T12:18:10.574Z,85.50
2022-09-23T12:21:45.698Z,86.00
2022-09-23T12:24:31.397Z,84.90
2022-09-23T12:27:06.138Z,85.40
2022-09-23T12:29:36.328Z,85.90
2022-09-23T12:32:09.936Z,80.10
2022-09-23T12:34:49.035Z,80.10
2022-09-23T12:37:34.294Z,81.60
2022-09-23T12:40:08.548Z,83.50
2022-09-23T12:42:44.277Z,82.70
2022-09-23T12:45:39.630Z,82.40
2022-09-23T12:48:18.233Z,82.20
2022-09-23T12:50:54.040Z,84.00
2022-09-23T12:53:36.142Z,84.60
2022-09-23T12:56:15.505Z,85.30
2022-09-23T12:58:42.311Z,85.00
2022-09-23T13:01:22.780Z,84.20
2022-09-23T13:04:14.080Z,85.80
2022-09-23T13:07:06.423Z,85.70
2022-09-23T13:09:43.065Z,85.90
2022-09-23T13:12:25.679Z,84.00
2022-09-23T13:14:55.221Z,82.40
2022-09-23T13:17:26.008Z,83.60
2022-09-23T13:20:05.795Z,83.40
2022-09-23T13:22:52.551Z,84.40
2022-09-23T13:25:24.613Z,86.90
2022-09-23T13:27:55.225Z,88.10
2022-09-23T13:30:26.615Z,85.40
2022-09-23T15:02:57.703Z,84.00
2022-09-23T15:05:32.401Z,86.90
2022-09-23T15:08:02.893Z,85.50
2022-09-23T15:10:37.613Z,85.60
2022-09-23T15:13:16.352Z,86.10
2022-09-23T15:15:43.794Z,85.30
2022-09-23T15:18:38.905Z,85.30
2022-09-23T15:21:08.553Z,84.40
2022-09-23T15:23:42.405Z,85.10
2022-09-23T15:26:24.816Z,85.70
2022-09-23T15:28:54.313Z,85.50
2022-09-23T15:31:26.843Z,84.30
2022-09-23T15:33:54.100Z,85.10
2022-09-23T15:36:26.305Z,85.00
2022-09-23T15:38:54.048Z,85.20
2022-09-23T15:41:24.096Z,85.40
2022-09-23T15:43:51.560Z,85.60
2022-09-23T15:46:22.463Z,86.30
2022-09-23T15:49:07.134Z,86.00
2022-09-23T15:51:35.538Z,87.10
2022-09-23T15:54:02.406Z,86.40
2022-09-23T15:56:30.106Z,86.90
2022-09-23T15:58:56.976Z,86.60
2022-09-23T16:01:28.345Z,86.60
2022-09-23T16:03:57.323Z,87.30
2022-09-23T16:06:28.127Z,87.10
2022-09-23T16:08:55.733Z,87.40
2022-09-23T16:11:33.095Z,87.70
2022-09-23T16:14:03.565Z,87.60
2022-09-23T16:16:31.118Z,87.60
2022-09-23T16:18:58.037Z,87.80
2022-09-23T16:21:27.852Z,88.10
2022-09-23T16:23:57.277Z,88.40
2022-09-23T16:26:27.585Z,89.00
2022-09-23T16:28:56.487Z,89.00
2022-09-23T16:31:25.758Z,89.00
2022-09-23T16:33:53.680Z,89.40
2022-09-23T16:36:27.013Z,89.30
2022-09-23T16:38:58.202Z,90.00
2022-09-23T16:41:27.795Z,89.70
2022-09-23T16:43:55.643Z,90.00
2022-09-23T16:46:23.923Z,90.20
2022-09-23T16:48:53.114Z,90.40
2022-09-23T16:51:26.558Z,90.40
2022-09-23T16:53:55.391Z,90.60
2022-09-23T16:56:28.265Z,90.80
2022-09-23T16:58:56.362Z,91.20
2022-09-23T17:01:43.044Z,90.90
2022-09-23T17:04:10.740Z,91.00
2022-09-23T17:06:43.437Z,91.20
2022-09-23T17:09:11.206Z,91.40
2022-09-23T17:11:38.372Z,91.40
2022-09-23T17:14:05.918Z,91.70
2022-09-23T17:16:35.101Z,91.80
2022-09-23T17:19:10.517Z,91.70
2022-09-23T17:21:39.021Z,91.90
2022-09-23T17:24:07.983Z,91.90
2022-09-23T17:26:35.429Z,92.10
2022-09-23T17:29:02.364Z,92.10
2022-09-23T17:31:30.233Z,92.10
2022-09-23T17:33:57.578Z,92.30
2022-09-23T17:36:28.372Z,92.10
2022-09-23T17:38:55.885Z,92.40
2022-09-23T17:41:23.664Z,92.30
2022-09-23T17:43:57.121Z,92.40
2022-09-23T17:46:32.261Z,92.30
2022-09-23T17:49:00.469Z,92.50
2022-09-23T17:51:30.168Z,92.50
2022-09-23T17:53:58.228Z,92.70
2022-09-23T17:56:27.176Z,93.20
2022-09-23T17:58:54.478Z,92.90
2022-09-23T18:01:26.339Z,92.80
2022-09-23T18:03:55.147Z,92.90
2022-09-23T18:06:24.804Z,92.90
2022-09-23T18:08:52.442Z,92.90
2022-09-23T18:11:24.028Z,93.50
2022-09-23T18:14:03.176Z,93.30
2022-09-23T18:16:34.075Z,93.40
2022-09-23T18:19:02.737Z,93.30
2022-09-23T18:21:38.523Z,93.40
2022-09-23T18:24:28.577Z,93.40
2022-09-23T18:26:54.033Z,93.60
2022-09-23T18:29:23.274Z,93.70
2022-09-23T18:31:54.919Z,93.70
2022-09-23T18:34:23.241Z,94.10
2022-09-23T18:36:50.427Z,94.00
2022-09-23T18:39:17.439Z,94.20
2022-09-23T18:41:44.430Z,94.20
2022-09-23T18:44:11.495Z,94.30
2022-09-23T18:46:38.706Z,94.50
2022-09-23T18:49:24.322Z,94.70
2022-09-23T18:51:55.183Z,95.30
2022-09-23T18:54:27.756Z,95.10
2022-09-23T18:56:55.287Z,94.90
2022-09-23T18:59:25.981Z,95.00
2022-09-23T19:01:55.777Z,95.00
2022-09-23T19:04:24.559Z,95.10
2022-09-23T19:06:51.742Z,95.30
2022-09-23T19:09:18.928Z,95.40
2022-09-23T19:11:52.214Z,95.40
2022-09-23T19:14:19.649Z,95.50
2022-09-23T19:16:49.199Z,95.80
2022-09-23T19:19:16.474Z,95.70
2022-09-23T19:21:43.474Z,96.00
2022-09-23T19:24:16.062Z,96.00
2022-09-23T19:26:43.755Z,96.20
2022-09-23T19:29:15.912Z,96.30
2022-09-23T19:31:43.845Z,96.40
2022-09-23T19:34:16.516Z,96.50
2022-09-23T19:36:49.634Z,97.20
2022-09-23T19:39:18.251Z,96.90
2022-09-23T19:41:48.697Z,96.90
2022-09-23T19:44:16.741Z,96.90
2022-09-23T19:46:51.925Z,97.10
2022-09-23T19:49:24.010Z,97.10
2022-09-23T19:51:51.116Z,97.30
2022-09-23T19:54:20.956Z,97.40
2022-09-23T19:56:51.172Z,97.90
2022-09-23T19:59:19.304Z,98.00
2022-09-23T20:01:47.696Z,98.10
2022-09-23T20:04:16.017Z,98.30
2022-09-23T20:06:43.607Z,98.50
2022-09-23T20:09:10.797Z,98.70
2022-09-23T20:11:38.163Z,99.20
2022-09-23T20:14:07.377Z,99.30
2022-09-23T20:16:37.120Z,99.70
2022-09-23T20:19:05.567Z,99.60
2022-09-23T20:21:38.122Z,99.60
2022-09-23T20:24:06.631Z,99.90
2022-09-23T20:27:06.146Z,99.90
2022-09-23T20:29:32.982Z,99.90
2022-09-23T20:32:00.092Z,99.90
2022-09-23T20:34:34.670Z,99.90
2022-09-23T20:37:01.666Z,99.90
2022-09-23T20:39:28.473Z,99.90
2022-09-23T20:41:55.833Z,99.90
2022-09-23T20:44:22.783Z,99.90
2022-09-23T20:46:49.982Z,99.90
2022-09-23T20:49:18.026Z,99.90
2022-09-23T20:51:47.576Z,99.90
2022-09-23T20:54:15.830Z,99.90
2022-09-23T20:56:43.195Z,99.90
2022-09-23T20:59:11.710Z,99.90
2022-09-23T21:01:38.728Z,99.90
2022-09-23T21:04:06.149Z,99.90
2022-09-23T21:06:35.432Z,99.90
2022-09-23T21:09:02.994Z,99.90
2022-09-23T21:11:31.182Z,99.90
2022-09-23T21:14:00.429Z,99.90
2022-09-23T21:16:27.985Z,99.90
2022-09-23T21:18:54.862Z,99.90
2022-09-23T21:21:22.415Z,99.90
2022-09-23T21:23:51.198Z,99.90
2022-09-23T21:26:21.110Z,99.90
2022-09-23T21:28:51.127Z,99.90
2022-09-23T21:31:23.834Z,99.90
2022-09-23T21:34:02.699Z,99.90
2022-09-23T21:36:32.140Z,99.90
2022-09-23T21:39:01.845Z,99.90
2022-09-23T21:41:29.212Z,99.90
2022-09-23T21:43:56.487Z,99.90
2022-09-23T21:46:24.090Z,99.90
2022-09-23T21:48:53.723Z,99.90
2022-09-23T21:51:23.246Z,99.90
2022-09-23T21:53:50.312Z,99.90
2022-09-23T21:56:21.193Z,99.90
2022-09-23T21:58:50.087Z,99.90
2022-09-23T22:01:22.790Z,99.90
2022-09-23T22:03:58.994Z,99.90
2022-09-23T22:06:30.661Z,99.90
2022-09-23T22:08:59.913Z,99.90
2022-09-23T22:14:17.862Z,99.90
2022-09-23T22:16:45.934Z,99.90
2022-09-23T22:19:18.181Z,99.90
2022-09-23T22:21:47.312Z,99.90
2022-09-23T22:24:14.793Z,99.90
2022-09-23T22:26:48.274Z,99.90
2022-09-23T22:29:36.931Z,99.90
2022-09-23T22:32:24.442Z,99.90
2022-09-23T22:34:52.708Z,99.90
2022-09-23T22:37:35.986Z,99.90
2022-09-23T22:40:05.705Z,99.90
2022-09-23T22:42:33.285Z,99.90
2022-09-23T22:45:00.144Z,99.90
2022-09-23T22:47:27.212Z,99.90
2022-09-23T22:49:55.487Z,99.90
2022-09-23T22:52:24.730Z,99.90
2022-09-23T22:54:52.763Z,99.90
2022-09-23T22:57:19.846Z,99.90
2022-09-23T22:59:48.444Z,99.90
2022-09-23T23:02:18.411Z,99.90
2022-09-23T23:04:47.882Z,99.90
2022-09-23T23:07:16.650Z,99.90
2022-09-23T23:09:43.452Z,99.90
2022-09-23T23:12:10.262Z,99.90
2022-09-23T23:14:38.103Z,99.90
2022-09-23T23:17:07.562Z,99.90
2022-09-23T23:19:36.389Z,99.90
2022-09-23T23:22:04.470Z,99.90
2022-09-23T23:24:31.345Z,99.90
2022-09-23T23:26:58.415Z,99.90
2022-09-23T23:29:25.208Z,99.90
2022-09-23T23:31:52.552Z,99.90
2022-09-23T23:34:20.983Z,99.90
2022-09-23T23:36:54.461Z,99.90
2022-09-23T23:39:25.652Z,99.90
2022-09-23T23:41:54.926Z,99.90
2022-09-23T23:44:23.829Z,99.90
2022-09-23T23:46:51.174Z,99.90
2022-09-23T23:49:18.117Z,99.90
2022-09-23T23:51:44.889Z,99.90
2022-09-23T23:54:12.433Z,99.90
2022-09-23T23:56:39.251Z,99.90
2022-09-23T23:59:06.138Z,99.90
